Aérodrome :
LOGIN :

S'inscrire | Disclaimer

   EN    FR    IT 

 










Légende :    VFR   VFR Marginal   IFR   IFR Intensif   IFR Très Intensif
Visi : 
Plafond : 
>= 8 km
>= 3000ft
5 à 8 km
1000 à 3000 ft
1500m à 5 km
500 à 1000 ft
800 à 1500m
200 à 500 ft
< 800m
< 200 ft
Symboles :   Orages  Brouillard  Fortes neiges  Fortes précipitations  Vent > 20 kt
SIGMETs :   Divers  Orages  Givrage  Turbulence  Onde Orograph.  Cendres Volcan.






- Altitude de l'aérodrome : 187 ft


ETNW - Wunstorf AB

DERNIER METAR :
  • 021420Z 19006KT 9999 FEW008 BKN014 03/01 Q1015 GRN WHT TEMPO YLO

METARs EXPIRÉS :
  • 021340Z 15002KT 9999 SCT007 BKN014 04/02 Q1015 GRN WHT TEMPO YLO
  • 021327Z 00000KT 7000 BKN007 BKN014 04/02 Q1015 GRN WHT TEMPO YLO
  • 021320Z 00000KT 4500 BR BKN007 BKN013 04/02 Q1016 GRN WHT TEMPO YLO
  • 021220Z 15005KT 4500 BR BKN006 04/02 Q1016 YLO WHT TEMPO YLO

TAF TAF ETNW
Valide du 02 à 12h jusqu'au 03 à 12h UTC


021131Z 0212/0312 13005KT 8000 NSW SCT008 BKN020
TEMPO 0212/0309 12004KT 3000 BR BKN006 BKN025 BY ETGL



MET'MAP, la Météo Aéronautique d'un coup d'oeil ! - Copyright ORBIFLY Décembre 2007 - Disclaimer

ORBIFLY MET'MAP TEAM :

Programmation & Développement : Alexandra Zaïnal
Sur une idée originale de : Baudouin d'Aumeries
Assistance à la programmation : Marc-Olivier Méhu
Soutien technique & logistique : Manuel Goepfert

Contact : metmap@orbifly.com




SOURCES & CREDITS :

   NOAA